Grandin Road, Virginia
Current Conditions -  °F | °C
As of 6:54 PM on Sunday 25 Jan 2015 (Local Time) from KROA Reporting Station
Scattered Clouds Scattered Clouds  
Wind Chill: 47°   Ceiling: Unl
Heat Index: 47°   Visibility: 10mi
Dew Point: 29°   Wind: 3mph
Humidity: 50%   Direction: 160°SSE
Pressure: 29.79"   Gusts: NA
Location:  37.2556°N, 79.9796°W
Report Text: KROA 252354Z 16003KT 10SM FEW150 SCT250 08/M02 A2979 RMK AO2 SLP091 T00831017 10106 20072 53003
Loading
Personal Weather Stations






























Interactive Weather Map New forecast layout! Learn more

10-Day Weather Forecast

Advertisements
Track Severe Weather on mobile